sensor_id;sensor_type;location;lat;lon;timestamp;pressure;altitude;pressure_sealevel;temperature;humidity
47260;BME280;32999;52.412;4.890;2023-04-19T00:00:17;102914.16;;;9.20;100.00
47260;BME280;32999;52.412;4.890;2023-04-19T00:05:22;102911.47;;;9.31;100.00
47260;BME280;32999;52.412;4.890;2023-04-19T00:10:24;102898.63;;;9.25;100.00
47260;BME280;32999;52.412;4.890;2023-04-19T00:15:27;102907.19;;;9.08;100.00
47260;BME280;32999;52.412;4.890;2023-04-19T00:20:32;102897.78;;;9.25;100.00
47260;BME280;32999;52.412;4.890;2023-04-19T01:31:15;102880.91;;;9.24;100.00
47260;BME280;32999;52.412;4.890;2023-04-19T01:36:58;102875.66;;;9.02;100.00
47260;BME280;32999;52.412;4.890;2023-04-19T01:42:04;102874.88;;;9.22;100.00
47260;BME280;32999;52.412;4.890;2023-04-19T01:47:06;102870.22;;;9.35;100.00
47260;BME280;32999;52.412;4.890;2023-04-19T01:52:11;102805.28;;;8.61;100.00
47260;BME280;32999;52.412;4.890;2023-04-19T01:57:14;102865.25;;;9.31;100.00
47260;BME280;32999;52.412;4.890;2023-04-19T02:02:20;102877.59;;;9.11;100.00
47260;BME280;32999;52.412;4.890;2023-04-19T02:19:49;102872.13;;;9.12;100.00
47260;BME280;32999;52.412;4.890;2023-04-19T02:31:03;102871.44;;;9.31;100.00
47260;BME280;32999;52.412;4.890;2023-04-19T02:36:27;102868.44;;;9.45;100.00
47260;BME280;32999;52.412;4.890;2023-04-19T02:41:29;102877.50;;;9.54;100.00
47260;BME280;32999;52.412;4.890;2023-04-19T02:46:31;102883.22;;;9.70;100.00
47260;BME280;32999;52.412;4.890;2023-04-19T02:51:34;102903.84;;;9.47;100.00
47260;BME280;32999;52.412;4.890;2023-04-19T02:56:42;102884.19;;;9.48;100.00
47260;BME280;32999;52.412;4.890;2023-04-19T03:01:44;102886.03;;;9.69;100.00
47260;BME280;32999;52.412;4.890;2023-04-19T03:06:47;102906.88;;;9.75;100.00
47260;BME280;32999;52.412;4.890;2023-04-19T03:11:52;102883.66;;;9.96;100.00
47260;BME280;32999;52.412;4.890;2023-04-19T03:16:53;102889.25;;;9.93;100.00
47260;BME280;32999;52.412;4.890;2023-04-19T03:21:57;102899.00;;;9.73;100.00
47260;BME280;32999;52.412;4.890;2023-04-19T03:26:58;102883.63;;;9.86;100.00
47260;BME280;32999;52.412;4.890;2023-04-19T03:32:01;102895.59;;;9.92;100.00
47260;BME280;32999;52.412;4.890;2023-04-19T03:37:10;102879.25;;;9.85;100.00
47260;BME280;32999;52.412;4.890;2023-04-19T03:42:15;102809.59;;;9.26;100.00
47260;BME280;32999;52.412;4.890;2023-04-19T03:47:16;102870.22;;;9.77;100.00
47260;BME280;32999;52.412;4.890;2023-04-19T03:52:20;102877.41;;;9.65;100.00
47260;BME280;32999;52.412;4.890;2023-04-19T03:57:21;102872.41;;;9.72;100.00
47260;BME280;32999;52.412;4.890;2023-04-19T04:02:24;102867.75;;;9.64;100.00
47260;BME280;32999;52.412;4.890;2023-04-19T04:07:28;102828.50;;;9.34;100.00
47260;BME280;32999;52.412;4.890;2023-04-19T04:12:29;102863.09;;;9.45;100.00
47260;BME280;32999;52.412;4.890;2023-04-19T04:17:31;102807.69;;;8.64;100.00
47260;BME280;32999;52.412;4.890;2023-04-19T04:22:35;102871.56;;;9.30;100.00
47260;BME280;32999;52.412;4.890;2023-04-19T04:27:37;102803.28;;;8.74;100.00
47260;BME280;32999;52.412;4.890;2023-04-19T04:32:39;102875.72;;;9.23;100.00
47260;BME280;32999;52.412;4.890;2023-04-19T04:55:48;102876.69;;;8.90;100.00
47260;BME280;32999;52.412;4.890;2023-04-19T05:00:50;102854.78;;;8.75;100.00
47260;BME280;32999;52.412;4.890;2023-04-19T05:05:52;102880.97;;;9.13;100.00
47260;BME280;32999;52.412;4.890;2023-04-19T05:10:55;102831.25;;;8.80;100.00
47260;BME280;32999;52.412;4.890;2023-04-19T05:21:47;102915.06;;;9.09;100.00
47260;BME280;32999;52.412;4.890;2023-04-19T06:15:51;102911.16;;;9.45;100.00
47260;BME280;32999;52.412;4.890;2023-04-19T06:33:12;102905.63;;;9.58;100.00
47260;BME280;32999;52.412;4.890;2023-04-19T06:50:24;102912.97;;;10.07;100.00
47260;BME280;32999;52.412;4.890;2023-04-19T06:55:26;102905.06;;;10.57;100.00
47260;BME280;32999;52.412;4.890;2023-04-19T07:00:28;102846.31;;;10.06;100.00
47260;BME280;32999;52.412;4.890;2023-04-19T07:05:32;102835.31;;;9.99;100.00
47260;BME280;32999;52.412;4.890;2023-04-19T07:10:33;102914.22;;;10.24;100.00
47260;BME280;32999;52.412;4.890;2023-04-19T07:15:35;102853.91;;;10.31;100.00
47260;BME280;32999;52.412;4.890;2023-04-19T07:20:39;102924.81;;;10.75;100.00
47260;BME280;32999;52.412;4.890;2023-04-19T07:26:12;102921.78;;;10.99;100.00
47260;BME280;32999;52.412;4.890;2023-04-19T07:31:18;102829.13;;;10.79;100.00
47260;BME280;32999;52.412;4.890;2023-04-19T07:36:24;102849.94;;;10.95;100.00
47260;BME280;32999;52.412;4.890;2023-04-19T07:41:30;102784.91;;;10.84;100.00
47260;BME280;32999;52.412;4.890;2023-04-19T07:46:31;102910.63;;;12.10;100.00
47260;BME280;32999;52.412;4.890;2023-04-19T07:51:34;102893.22;;;12.23;100.00
47260;BME280;32999;52.412;4.890;2023-04-19T07:56:36;102906.72;;;12.32;100.00
47260;BME280;32999;52.412;4.890;2023-04-19T08:01:38;102888.31;;;12.46;100.00
47260;BME280;32999;52.412;4.890;2023-04-19T08:06:41;102801.72;;;12.36;95.03
47260;BME280;32999;52.412;4.890;2023-04-19T08:11:43;102912.75;;;12.88;88.46
47260;BME280;32999;52.412;4.890;2023-04-19T08:16:45;102899.28;;;12.80;90.02
47260;BME280;32999;52.412;4.890;2023-04-19T08:21:48;102902.50;;;12.84;86.41
47260;BME280;32999;52.412;4.890;2023-04-19T08:26:50;102832.25;;;12.71;81.48
47260;BME280;32999;52.412;4.890;2023-04-19T08:31:53;102891.94;;;13.00;79.43
47260;BME280;32999;52.412;4.890;2023-04-19T08:36:56;102843.06;;;12.61;83.09
47260;BME280;32999;52.412;4.890;2023-04-19T08:42:02;102892.25;;;13.94;78.17
47260;BME280;32999;52.412;4.890;2023-04-19T08:47:06;102809.09;;;13.67;70.77
47260;BME280;32999;52.412;4.890;2023-04-19T08:52:11;102885.38;;;14.59;73.11
47260;BME280;32999;52.412;4.890;2023-04-19T08:57:13;102868.75;;;16.57;63.86
47260;BME280;32999;52.412;4.890;2023-04-19T09:02:15;102847.63;;;16.30;60.32
47260;BME280;32999;52.412;4.890;2023-04-19T09:07:26;102812.97;;;15.31;60.37
47260;BME280;32999;52.412;4.890;2023-04-19T09:12:28;102824.34;;;16.60;58.67
47260;BME280;32999;52.412;4.890;2023-04-19T09:17:30;102838.22;;;16.18;52.79
47260;BME280;32999;52.412;4.890;2023-04-19T09:22:33;102739.50;;;15.53;54.71
47260;BME280;32999;52.412;4.890;2023-04-19T09:27:35;102743.81;;;16.41;51.81
47260;BME280;32999;52.412;4.890;2023-04-19T09:32:45;102814.22;;;18.12;49.75
47260;BME280;32999;52.412;4.890;2023-04-19T09:38:00;102796.59;;;17.87;47.09
47260;BME280;32999;52.412;4.890;2023-04-19T09:43:02;102815.53;;;17.87;48.33
47260;BME280;32999;52.412;4.890;2023-04-19T09:48:05;102726.72;;;17.17;49.77
47260;BME280;32999;52.412;4.890;2023-04-19T09:53:09;102668.81;;;17.99;44.76
47260;BME280;32999;52.412;4.890;2023-04-19T09:58:11;102763.34;;;17.34;50.22
47260;BME280;32999;52.412;4.890;2023-04-19T10:03:13;102803.22;;;18.28;47.02
47260;BME280;32999;52.412;4.890;2023-04-19T10:08:17;102813.72;;;18.53;48.25
47260;BME280;32999;52.412;4.890;2023-04-19T10:13:20;102759.38;;;18.97;46.15
47260;BME280;32999;52.412;4.890;2023-04-19T10:18:23;102765.09;;;19.09;44.46
47260;BME280;32999;52.412;4.890;2023-04-19T10:23:27;102669.75;;;18.98;44.01
47260;BME280;32999;52.412;4.890;2023-04-19T10:28:29;102652.59;;;19.60;40.60
47260;BME280;32999;52.412;4.890;2023-04-19T10:33:35;102766.53;;;19.60;42.06
47260;BME280;32999;52.412;4.890;2023-04-19T10:38:40;102723.41;;;19.10;41.86
47260;BME280;32999;52.412;4.890;2023-04-19T10:43:44;102711.50;;;19.04;40.42
47260;BME280;32999;52.412;4.890;2023-04-19T10:48:50;102697.31;;;19.09;40.78
47260;BME280;32999;52.412;4.890;2023-04-19T10:53:57;102737.53;;;19.61;41.26
47260;BME280;32999;52.412;4.890;2023-04-19T10:59:12;102734.56;;;18.72;40.15
47260;BME280;32999;52.412;4.890;2023-04-19T11:04:22;102741.34;;;18.47;41.14
47260;BME280;32999;52.412;4.890;2023-04-19T11:09:29;102682.72;;;20.40;38.59
47260;BME280;32999;52.412;4.890;2023-04-19T11:14:33;102707.47;;;18.72;43.21
47260;BME280;32999;52.412;4.890;2023-04-19T11:19:35;102649.16;;;18.33;41.11
47260;BME280;32999;52.412;4.890;2023-04-19T11:24:44;102685.72;;;19.49;38.33
47260;BME280;32999;52.412;4.890;2023-04-19T11:29:46;102639.94;;;18.98;37.52
47260;BME280;32999;52.412;4.890;2023-04-19T11:34:48;102611.34;;;19.30;38.34
47260;BME280;32999;52.412;4.890;2023-04-19T11:39:51;102579.78;;;18.54;36.26
47260;BME280;32999;52.412;4.890;2023-04-19T11:44:53;102593.41;;;19.84;34.28
47260;BME280;32999;52.412;4.890;2023-04-19T11:50:09;102577.78;;;18.62;35.53
47260;BME280;32999;52.412;4.890;2023-04-19T11:55:20;102584.34;;;18.25;36.71
47260;BME280;32999;52.412;4.890;2023-04-19T12:00:26;102655.72;;;20.31;37.36
47260;BME280;32999;52.412;4.890;2023-04-19T12:05:28;102594.41;;;19.22;36.42
47260;BME280;32999;52.412;4.890;2023-04-19T12:10:31;102610.47;;;20.52;35.43
47260;BME280;32999;52.412;4.890;2023-04-19T12:15:40;102606.16;;;18.94;34.50
47260;BME280;32999;52.412;4.890;2023-04-19T12:20:43;102578.34;;;19.55;34.52
47260;BME280;32999;52.412;4.890;2023-04-19T12:25:47;102553.81;;;20.35;34.63
47260;BME280;32999;52.412;4.890;2023-04-19T12:30:49;102628.75;;;20.10;34.80
47260;BME280;32999;52.412;4.890;2023-04-19T12:35:52;102508.59;;;18.04;33.77
47260;BME280;32999;52.412;4.890;2023-04-19T12:40:55;102583.03;;;17.64;36.11
47260;BME280;32999;52.412;4.890;2023-04-19T12:45:57;102596.94;;;18.89;34.73
47260;BME280;32999;52.412;4.890;2023-04-19T12:50:59;102597.53;;;18.84;36.19
47260;BME280;32999;52.412;4.890;2023-04-19T12:56:02;102577.75;;;18.13;36.48
47260;BME280;32999;52.412;4.890;2023-04-19T13:01:04;102624.16;;;18.53;36.20
47260;BME280;32999;52.412;4.890;2023-04-19T13:06:06;102562.91;;;18.52;37.42
47260;BME280;32999;52.412;4.890;2023-04-19T13:11:10;102587.00;;;19.44;36.53
47260;BME280;32999;52.412;4.890;2023-04-19T13:16:11;102649.22;;;18.40;39.13
47260;BME280;32999;52.412;4.890;2023-04-19T13:21:13;102595.34;;;19.42;38.29
47260;BME280;32999;52.412;4.890;2023-04-19T13:26:16;102493.88;;;18.69;36.72
47260;BME280;32999;52.412;4.890;2023-04-19T13:31:18;102599.56;;;16.06;41.36
47260;BME280;32999;52.412;4.890;2023-04-19T13:36:20;102692.94;;;15.76;44.75
47260;BME280;32999;52.412;4.890;2023-04-19T13:41:23;102698.56;;;15.97;48.08
47260;BME280;32999;52.412;4.890;2023-04-19T13:46:24;102674.50;;;15.87;50.11
47260;BME280;32999;52.412;4.890;2023-04-19T13:51:26;102650.25;;;15.56;48.84
47260;BME280;32999;52.412;4.890;2023-04-19T13:56:29;102559.09;;;15.21;50.09
47260;BME280;32999;52.412;4.890;2023-04-19T14:01:31;102641.94;;;15.66;49.51
47260;BME280;32999;52.412;4.890;2023-04-19T14:06:33;102667.16;;;15.18;51.42
47260;BME280;32999;52.412;4.890;2023-04-19T14:11:36;102613.09;;;15.27;51.99
47260;BME280;32999;52.412;4.890;2023-04-19T14:16:38;102586.50;;;15.24;52.79
47260;BME280;32999;52.412;4.890;2023-04-19T14:21:39;102628.09;;;15.30;54.09
47260;BME280;32999;52.412;4.890;2023-04-19T14:26:42;102546.75;;;14.87;53.36
47260;BME280;32999;52.412;4.890;2023-04-19T14:31:44;102571.69;;;14.81;53.75
47260;BME280;32999;52.412;4.890;2023-04-19T14:36:46;102598.78;;;14.80;55.09
47260;BME280;32999;52.412;4.890;2023-04-19T14:41:49;102525.16;;;14.48;57.80
47260;BME280;32999;52.412;4.890;2023-04-19T14:46:51;102498.38;;;14.63;57.00
47260;BME280;32999;52.412;4.890;2023-04-19T14:51:52;102499.44;;;14.29;56.63
47260;BME280;32999;52.412;4.890;2023-04-19T14:56:56;102517.78;;;14.10;57.02
47260;BME280;32999;52.412;4.890;2023-04-19T15:01:57;102522.28;;;14.34;60.25
47260;BME280;32999;52.412;4.890;2023-04-19T15:06:59;102590.19;;;14.60;61.03
47260;BME280;32999;52.412;4.890;2023-04-19T15:12:02;102488.03;;;13.79;66.56
47260;BME280;32999;52.412;4.890;2023-04-19T15:17:05;102575.75;;;14.20;63.88
47260;BME280;32999;52.412;4.890;2023-04-19T15:22:06;102554.56;;;14.34;71.38
47260;BME280;32999;52.412;4.890;2023-04-19T15:27:09;102599.97;;;14.45;80.20
47260;BME280;32999;52.412;4.890;2023-04-19T15:32:11;102542.81;;;14.02;89.63
47260;BME280;32999;52.412;4.890;2023-04-19T15:37:13;102542.78;;;13.94;95.99
47260;BME280;32999;52.412;4.890;2023-04-19T15:42:16;102514.06;;;13.78;94.68
47260;BME280;32999;52.412;4.890;2023-04-19T15:47:18;102483.38;;;13.22;94.94
47260;BME280;32999;52.412;4.890;2023-04-19T15:52:20;102538.69;;;13.49;100.00
47260;BME280;32999;52.412;4.890;2023-04-19T15:57:23;102474.78;;;13.11;100.00
47260;BME280;32999;52.412;4.890;2023-04-19T16:02:25;102535.94;;;13.25;100.00
47260;BME280;32999;52.412;4.890;2023-04-19T16:07:27;102540.94;;;13.20;100.00
47260;BME280;32999;52.412;4.890;2023-04-19T16:12:30;102450.34;;;12.46;100.00
47260;BME280;32999;52.412;4.890;2023-04-19T16:17:31;102533.22;;;12.91;100.00
47260;BME280;32999;52.412;4.890;2023-04-19T16:22:33;102445.16;;;12.18;100.00
47260;BME280;32999;52.412;4.890;2023-04-19T16:27:39;102545.03;;;12.72;100.00
47260;BME280;32999;52.412;4.890;2023-04-19T16:32:42;102446.41;;;12.06;100.00
47260;BME280;32999;52.412;4.890;2023-04-19T16:37:43;102498.44;;;12.21;100.00
47260;BME280;32999;52.412;4.890;2023-04-19T16:42:46;102539.34;;;12.75;100.00
47260;BME280;32999;52.412;4.890;2023-04-19T16:47:48;102450.19;;;11.96;100.00
47260;BME280;32999;52.412;4.890;2023-04-19T16:52:50;102528.25;;;12.18;100.00
47260;BME280;32999;52.412;4.890;2023-04-19T16:57:54;102524.97;;;12.50;100.00
47260;BME280;32999;52.412;4.890;2023-04-19T17:02:55;102440.84;;;12.25;100.00
47260;BME280;32999;52.412;4.890;2023-04-19T17:07:57;102529.91;;;12.19;100.00
47260;BME280;32999;52.412;4.890;2023-04-19T17:13:00;102542.28;;;12.12;100.00
47260;BME280;32999;52.412;4.890;2023-04-19T17:18:02;102464.19;;;11.72;100.00
47260;BME280;32999;52.412;4.890;2023-04-19T17:23:04;102506.47;;;11.78;100.00
47260;BME280;32999;52.412;4.890;2023-04-19T17:28:07;102436.06;;;11.32;100.00
47260;BME280;32999;52.412;4.890;2023-04-19T17:33:09;102527.72;;;11.97;100.00
47260;BME280;32999;52.412;4.890;2023-04-19T17:38:10;102513.94;;;11.56;100.00
47260;BME280;32999;52.412;4.890;2023-04-19T17:43:13;102399.81;;;10.75;100.00
47260;BME280;32999;52.412;4.890;2023-04-19T17:48:15;102533.38;;;11.58;100.00
47260;BME280;32999;52.412;4.890;2023-04-19T17:53:17;102450.41;;;11.13;100.00
47260;BME280;32999;52.412;4.890;2023-04-19T17:58:20;102515.75;;;11.38;100.00
47260;BME280;32999;52.412;4.890;2023-04-19T18:03:26;102508.22;;;11.24;100.00
47260;BME280;32999;52.412;4.890;2023-04-19T18:08:28;102503.47;;;11.18;100.00
47260;BME280;32999;52.412;4.890;2023-04-19T18:13:34;102413.88;;;10.77;100.00
47260;BME280;32999;52.412;4.890;2023-04-19T18:18:36;102431.09;;;10.65;100.00
47260;BME280;32999;52.412;4.890;2023-04-19T18:23:38;102427.25;;;10.40;100.00
47260;BME280;32999;52.412;4.890;2023-04-19T18:28:43;102501.53;;;10.83;100.00
47260;BME280;32999;52.412;4.890;2023-04-19T18:33:45;102521.59;;;10.97;100.00
47260;BME280;32999;52.412;4.890;2023-04-19T18:38:46;102488.53;;;10.61;100.00
47260;BME280;32999;52.412;4.890;2023-04-19T18:43:50;102526.47;;;10.74;100.00
47260;BME280;32999;52.412;4.890;2023-04-19T18:48:54;102532.44;;;10.58;100.00
47260;BME280;32999;52.412;4.890;2023-04-19T18:53:57;102515.50;;;10.67;100.00
47260;BME280;32999;52.412;4.890;2023-04-19T18:59:00;102450.13;;;10.05;100.00
47260;BME280;32999;52.412;4.890;2023-04-19T19:04:03;102523.72;;;10.56;100.00
47260;BME280;32999;52.412;4.890;2023-04-19T19:09:05;102534.41;;;10.56;100.00
47260;BME280;32999;52.412;4.890;2023-04-19T19:14:09;102550.19;;;10.49;100.00
47260;BME280;32999;52.412;4.890;2023-04-19T19:19:18;102542.16;;;10.49;100.00
47260;BME280;32999;52.412;4.890;2023-04-19T19:24:33;102450.69;;;9.70;100.00
47260;BME280;32999;52.412;4.890;2023-04-19T19:31:59;102525.72;;;10.15;100.00
47260;BME280;32999;52.412;4.890;2023-04-19T19:41:54;102561.06;;;10.38;100.00
47260;BME280;32999;52.412;4.890;2023-04-19T19:47:02;102447.34;;;9.59;100.00
47260;BME280;32999;52.412;4.890;2023-04-19T19:52:06;102557.25;;;10.21;100.00
47260;BME280;32999;52.412;4.890;2023-04-19T19:57:26;102560.06;;;10.30;100.00
47260;BME280;32999;52.412;4.890;2023-04-19T20:02:30;102526.75;;;10.05;100.00
47260;BME280;32999;52.412;4.890;2023-04-19T20:10:55;102562.16;;;10.16;100.00
47260;BME280;32999;52.412;4.890;2023-04-19T20:13:30;102567.34;;;10.18;100.00
47260;BME280;32999;52.412;4.890;2023-04-19T20:18:34;102567.94;;;10.21;100.00
47260;BME280;32999;52.412;4.890;2023-04-19T20:23:38;102576.81;;;10.12;100.00
47260;BME280;32999;52.412;4.890;2023-04-19T20:28:40;102598.31;;;10.20;100.00
47260;BME280;32999;52.412;4.890;2023-04-19T20:33:45;102591.28;;;10.29;100.00
47260;BME280;32999;52.412;4.890;2023-04-19T20:38:47;102587.88;;;10.17;100.00
47260;BME280;32999;52.412;4.890;2023-04-19T20:43:49;102594.91;;;10.18;100.00
47260;BME280;32999;52.412;4.890;2023-04-19T20:48:52;102543.31;;;9.79;100.00
47260;BME280;32999;52.412;4.890;2023-04-19T20:53:54;102592.38;;;9.98;100.00
47260;BME280;32999;52.412;4.890;2023-04-19T20:58:56;102612.34;;;10.03;100.00
47260;BME280;32999;52.412;4.890;2023-04-19T21:09:51;102589.84;;;9.77;99.38
47260;BME280;32999;52.412;4.890;2023-04-19T21:20:11;102505.50;;;9.36;95.72
47260;BME280;32999;52.412;4.890;2023-04-19T21:25:15;102613.59;;;9.80;100.00
47260;BME280;32999;52.412;4.890;2023-04-19T21:30:17;102560.31;;;9.59;96.61
47260;BME280;32999;52.412;4.890;2023-04-19T21:41:29;102582.38;;;9.61;73.92
47260;BME280;32999;52.412;4.890;2023-04-19T22:47:55;102585.19;;;9.19;72.05
47260;BME280;32999;52.412;4.890;2023-04-19T23:05:04;102579.31;;;9.26;77.10
47260;BME280;32999;52.412;4.890;2023-04-19T23:10:08;102584.91;;;9.13;79.17
47260;BME280;32999;52.412;4.890;2023-04-19T23:15:11;102563.44;;;9.24;83.35
47260;BME280;32999;52.412;4.890;2023-04-19T23:20:22;102520.78;;;8.94;87.34
47260;BME280;32999;52.412;4.890;2023-04-19T23:25:24;102566.94;;;9.15;89.05
47260;BME280;32999;52.412;4.890;2023-04-19T23:30:26;102568.25;;;9.00;87.03
47260;BME280;32999;52.412;4.890;2023-04-19T23:35:30;102563.44;;;9.24;85.69
47260;BME280;32999;52.412;4.890;2023-04-19T23:40:32;102558.50;;;9.19;88.52
47260;BME280;32999;52.412;4.890;2023-04-19T23:45:34;102566.25;;;9.23;92.71
47260;BME280;32999;52.412;4.890;2023-04-19T23:50:37;102548.81;;;9.18;93.78
47260;BME280;32999;52.412;4.890;2023-04-19T23:55:39;102539.72;;;9.40;92.32
